This is the latest recevied weather packets stored in our database for station/object HA9OZD-18. If no packets are shown the sender has not sent any weather packets the latest 10 day(s).
| Time | Temp. | Humidity | Pressure | Rain* | Wind** | Luminosity | Snow |
|---|---|---|---|---|---|---|---|
| 1778158370 | 18.33° C | 60% | 1015.3 hPa | - | - | - | - |
| 1778154770 | 16.67° C | 73% | 1015.5 hPa | - | - | - | - |
| 1778151169 | 15° C | 93% | 1015.5 hPa | - | - | - | - |
| 1778147616 | 12.78° C | 100% | 1015.4 hPa | - | - | - | - |
| 1778147580 | 12.78° C | 100% | 1015.4 hPa | - | - | - | - |
| 1778147569 | 12.78° C | 100% | 1015.4 hPa | - | - | - | - |
| 1778140369 | 12.22° C | 100% | 1014.6 hPa | - | - | - | - |
| 1778136768 | 11.67° C | 100% | 1014.4 hPa | - | - | - | - |
| 1778133168 | 12.22° C | 100% | 1014.1 hPa | - | - | - | - |
| 1778129568 | 11.67° C | 100% | 1013.7 hPa | - | - | - | - |
| 1778125969 | 11.11° C | 100% | 1013.5 hPa | - | - | - | - |
| 1778122367 | 11.11° C | 100% | 1013.3 hPa | - | - | - | - |
| 1778118767 | 10.56° C | 100% | 1013.5 hPa | - | - | - | - |
| 1778115167 | 12.22° C | 95% | 1013.6 hPa | - | - | - | - |
| 1778111566 | 13.33° C | 84% | 1013.5 hPa | - | - | - | - |
| 1778107966 | 13.89° C | 75% | 1013.7 hPa | - | - | - | - |
| 1778104366 | 14.44° C | 69% | 1013.6 hPa | - | - | - | - |
| 1778100766 | 13.89° C | 67% | 1013.6 hPa | - | - | - | - |
| 1778097166 | 14.44° C | 64% | 1013.5 hPa | - | - | - | - |
| 1778093565 | 13.89° C | 66% | 1013.2 hPa | - | - | - | - |
| 1778089965 | 15° C | 62% | 1013 hPa | - | - | - | - |
| 1778086365 | 15.56° C | 57% | 1013 hPa | - | - | - | - |
| 1778082765 | 16.67° C | 52% | 1013.1 hPa | - | - | - | - |
| 1778079219 | 16.67° C | 47% | 1013.4 hPa | - | - | - | - |
| 1778079164 | 16.67° C | 47% | 1013.4 hPa | - | - | - | - |
* Rain since midnight (hover to see other rain measurements)
** Current wind speed in m/s (hover to see current wind gust speed)